createdAt,value
2023-01-29T00:01:58.708Z,22.47
2023-01-29T00:04:25.938Z,24.63
2023-01-29T00:06:53.060Z,23.60
2023-01-29T00:09:21.744Z,24.73
2023-01-29T00:11:48.951Z,22.93
2023-01-29T00:14:15.993Z,23.77
2023-01-29T00:16:43.082Z,22.27
2023-01-29T00:19:10.343Z,25.03
2023-01-29T00:21:37.310Z,23.83
2023-01-29T00:24:05.160Z,24.13
2023-01-29T00:26:33.626Z,24.13
2023-01-29T00:29:02.209Z,24.63
2023-01-29T00:31:29.575Z,23.87
2023-01-29T00:33:56.885Z,26.50
2023-01-29T00:36:25.148Z,25.97
2023-01-29T00:38:58.694Z,25.73
2023-01-29T00:41:47.297Z,25.48
2023-01-29T00:44:34.719Z,27.00
2023-01-29T00:47:02.142Z,25.03
2023-01-29T00:49:30.597Z,23.63
2023-01-29T00:52:18.867Z,24.23
2023-01-29T00:54:45.869Z,27.13
2023-01-29T00:57:16.182Z,27.67
2023-01-29T00:59:44.747Z,24.50
2023-01-29T01:02:30.442Z,25.20
2023-01-29T01:05:03.412Z,25.40
2023-01-29T01:07:30.849Z,24.80
2023-01-29T01:10:16.919Z,25.03
2023-01-29T01:12:48.251Z,24.23
2023-01-29T01:15:17.359Z,24.00
2023-01-29T01:17:44.508Z,23.37
2023-01-29T01:20:12.625Z,24.40
2023-01-29T01:22:39.844Z,26.50
2023-01-29T01:25:10.315Z,24.83
2023-01-29T01:27:41.222Z,24.63
2023-01-29T01:30:11.552Z,24.03
2023-01-29T01:32:40.496Z,25.03
2023-01-29T01:35:09.751Z,25.57
2023-01-29T01:37:39.868Z,24.53
2023-01-29T01:40:12.907Z,24.20
2023-01-29T01:42:41.290Z,24.63
2023-01-29T01:45:19.653Z,24.47
2023-01-29T01:47:51.931Z,24.30
2023-01-29T01:50:22.870Z,24.23
2023-01-29T01:52:52.837Z,24.90
2023-01-29T01:55:23.675Z,23.07
2023-01-29T01:57:59.121Z,22.70
2023-01-29T02:00:27.043Z,23.80
2023-01-29T02:03:14.778Z,24.20
2023-01-29T02:06:01.028Z,22.87
2023-01-29T02:08:54.697Z,24.27
2023-01-29T02:11:21.774Z,23.35
2023-01-29T02:13:53.634Z,22.70
2023-01-29T02:16:21.618Z,24.17
2023-01-29T02:18:50.949Z,24.13
2023-01-29T02:21:41.097Z,24.67
2023-01-29T02:24:35.191Z,24.17
2023-01-29T02:27:09.314Z,23.75
2023-01-29T02:29:50.661Z,24.83
2023-01-29T02:32:28.770Z,24.73
2023-01-29T02:35:25.198Z,24.80
2023-01-29T02:38:02.077Z,23.37
2023-01-29T02:40:36.028Z,22.27
2023-01-29T02:45:45.716Z,21.97
2023-01-29T02:48:18.199Z,22.10
2023-01-29T02:50:51.093Z,24.07
2023-01-29T02:53:21.792Z,24.40
2023-01-29T02:55:53.449Z,24.43
2023-01-29T02:58:27.618Z,25.63
2023-01-29T03:01:00.446Z,23.27
2023-01-29T03:03:31.356Z,25.03
2023-01-29T03:06:02.543Z,25.37
2023-01-29T03:08:43.345Z,25.20
2023-01-29T03:11:13.852Z,24.60
2023-01-29T03:13:46.111Z,24.00
2023-01-29T03:16:22.588Z,24.30
2023-01-29T03:18:57.058Z,25.73
2023-01-29T03:21:49.179Z,23.47
2023-01-29T03:24:37.927Z,25.07
2023-01-29T03:27:27.248Z,24.43
2023-01-29T03:30:15.373Z,23.37
2023-01-29T03:32:46.722Z,23.43
2023-01-29T03:35:21.058Z,25.20
2023-01-29T03:37:49.522Z,23.43
2023-01-29T03:40:16.977Z,26.00
2023-01-29T03:42:56.330Z,25.37
2023-01-29T03:45:34.840Z,24.03
2023-01-29T03:48:12.272Z,22.27
2023-01-29T03:50:48.137Z,23.70
2023-01-29T03:53:23.666Z,24.70
2023-01-29T03:55:58.395Z,24.40
2023-01-29T03:58:36.782Z,25.53
2023-01-29T04:01:08.018Z,24.17
2023-01-29T04:03:40.572Z,24.70
2023-01-29T04:06:11.834Z,25.20
2023-01-29T04:08:45.719Z,23.33
2023-01-29T04:11:17.570Z,24.70
2023-01-29T04:13:45.904Z,24.53
2023-01-29T04:16:17.715Z,25.47
2023-01-29T04:18:47.942Z,24.93
2023-01-29T04:21:15.514Z,26.73
2023-01-29T04:23:43.997Z,23.13
2023-01-29T04:26:29.673Z,26.97
2023-01-29T04:29:16.431Z,24.93
2023-01-29T04:31:56.636Z,24.90
2023-01-29T04:34:28.952Z,24.60
2023-01-29T04:37:05.011Z,25.23
2023-01-29T04:39:40.604Z,24.47
2023-01-29T04:42:14.569Z,25.60
2023-01-29T04:47:22.291Z,23.77
2023-01-29T04:49:59.423Z,23.83
2023-01-29T04:52:36.409Z,26.27
2023-01-29T04:55:08.680Z,26.03
2023-01-29T04:57:43.322Z,24.73
2023-01-29T05:00:17.049Z,25.00
2023-01-29T05:05:16.639Z,24.63
2023-01-29T05:07:44.246Z,24.60
2023-01-29T05:10:13.259Z,25.80
2023-01-29T05:12:43.475Z,28.23
2023-01-29T05:15:18.466Z,26.37
2023-01-29T05:17:47.103Z,24.90
2023-01-29T05:20:16.083Z,26.33
2023-01-29T05:22:45.178Z,24.17
2023-01-29T05:25:31.183Z,26.67
2023-01-29T05:28:04.493Z,25.73
2023-01-29T05:30:33.920Z,27.55
2023-01-29T05:33:01.569Z,29.47
2023-01-29T05:35:30.709Z,26.43
2023-01-29T05:37:57.845Z,27.17
2023-01-29T05:40:25.583Z,26.13
2023-01-29T05:42:52.900Z,26.27
2023-01-29T05:45:20.156Z,28.17
2023-01-29T05:47:47.619Z,25.97
2023-01-29T05:50:15.955Z,26.60
2023-01-29T05:52:44.896Z,25.17
2023-01-29T05:55:11.998Z,25.53
2023-01-29T05:57:40.941Z,26.63
2023-01-29T06:00:09.401Z,26.43
2023-01-29T06:02:36.502Z,26.67
2023-01-29T06:05:03.891Z,27.90
2023-01-29T06:07:31.046Z,27.03
2023-01-29T06:09:59.626Z,28.30
2023-01-29T06:12:27.173Z,28.77
2023-01-29T06:14:54.494Z,28.77
2023-01-29T06:17:21.837Z,27.23
2023-01-29T06:19:48.871Z,28.37
2023-01-29T06:22:16.031Z,28.27
2023-01-29T06:24:43.069Z,28.03
2023-01-29T06:27:11.620Z,27.83
2023-01-29T06:29:39.085Z,26.47
2023-01-29T06:32:06.416Z,27.47
2023-01-29T06:38:50.817Z,25.50
2023-01-29T06:41:20.661Z,26.00
2023-01-29T06:43:49.131Z,26.83
2023-01-29T06:46:16.272Z,26.47
2023-01-29T06:48:43.669Z,27.20
2023-01-29T06:51:11.819Z,27.97
2023-01-29T06:53:39.889Z,27.93
2023-01-29T06:56:07.737Z,28.10
2023-01-29T06:58:37.012Z,27.90
2023-01-29T07:01:06.349Z,29.27
2023-01-29T07:03:33.532Z,25.00
2023-01-29T07:06:01.197Z,26.60
2023-01-29T07:08:28.977Z,27.40
2023-01-29T07:11:02.262Z,27.10
2023-01-29T07:13:29.761Z,28.20
2023-01-29T07:15:59.304Z,27.20
2023-01-29T07:18:28.598Z,26.90
2023-01-29T07:20:56.524Z,26.47
2023-01-29T07:23:24.051Z,27.53
2023-01-29T07:25:51.214Z,29.60
2023-01-29T07:28:18.605Z,28.23
2023-01-29T07:30:45.650Z,26.60
2023-01-29T07:33:13.041Z,26.33
2023-01-29T07:35:42.830Z,28.57
2023-01-29T07:38:11.013Z,25.23
2023-01-29T07:40:38.158Z,28.07
2023-01-29T07:43:07.040Z,27.50
2023-01-29T07:45:35.599Z,26.37
2023-01-29T07:48:05.155Z,25.40
2023-01-29T07:50:34.516Z,26.73
2023-01-29T07:53:03.229Z,24.97
2023-01-29T07:55:30.927Z,26.70
2023-01-29T07:57:59.225Z,24.43
2023-01-29T08:00:26.713Z,23.40
2023-01-29T08:02:53.777Z,23.60
2023-01-29T08:05:21.075Z,24.17
2023-01-29T08:08:05.847Z,22.83
2023-01-29T08:10:35.820Z,22.70
2023-01-29T08:13:04.382Z,21.13
2023-01-29T08:15:31.730Z,22.50
2023-01-29T08:17:58.829Z,24.10
2023-01-29T08:20:26.222Z,23.20
2023-01-29T08:23:00.451Z,22.37
2023-01-29T08:25:28.088Z,21.43
2023-01-29T08:27:57.936Z,22.80
2023-01-29T08:30:25.426Z,24.37
2023-01-29T08:32:52.481Z,21.27
2023-01-29T08:35:19.861Z,20.97
2023-01-29T08:37:53.335Z,22.33
2023-01-29T08:40:20.573Z,22.25
2023-01-29T08:42:47.891Z,23.10
2023-01-29T08:45:16.473Z,21.77
2023-01-29T08:47:47.336Z,21.93
2023-01-29T08:50:15.026Z,22.60
2023-01-29T08:52:42.524Z,22.50
2023-01-29T08:55:10.447Z,21.80
2023-01-29T08:57:37.532Z,23.03
2023-01-29T09:00:05.960Z,22.50
2023-01-29T09:02:34.483Z,24.10
2023-01-29T09:05:01.584Z,22.97
2023-01-29T09:07:30.073Z,23.17
2023-01-29T09:09:57.317Z,22.47
2023-01-29T09:12:24.722Z,20.67
2023-01-29T09:14:51.783Z,21.50
2023-01-29T09:17:18.839Z,20.73
2023-01-29T09:19:47.251Z,22.03
2023-01-29T09:22:14.484Z,20.37
2023-01-29T09:24:41.516Z,23.77
2023-01-29T09:27:10.091Z,24.97
2023-01-29T09:29:37.484Z,22.77
2023-01-29T09:32:04.834Z,19.93
2023-01-29T09:34:32.003Z,22.67
2023-01-29T09:37:00.441Z,22.07
2023-01-29T09:39:27.493Z,21.00
2023-01-29T09:41:59.897Z,20.37
2023-01-29T09:44:45.463Z,20.90
2023-01-29T09:47:17.017Z,20.27
2023-01-29T09:49:48.207Z,20.50
2023-01-29T09:52:21.722Z,21.07
2023-01-29T09:54:54.878Z,21.38
2023-01-29T09:57:26.773Z,18.98
2023-01-29T09:59:54.713Z,20.43
2023-01-29T10:02:50.707Z,20.03
2023-01-29T10:05:32.571Z,19.40
2023-01-29T10:08:29.779Z,20.03
2023-01-29T10:11:08.139Z,20.30
2023-01-29T10:13:44.110Z,19.50
2023-01-29T10:16:30.804Z,19.27
2023-01-29T10:19:16.830Z,19.20
2023-01-29T10:22:00.362Z,19.30
2023-01-29T10:24:38.187Z,19.08
2023-01-29T10:27:13.787Z,19.88
2023-01-29T10:29:42.863Z,17.43
2023-01-29T10:32:16.643Z,18.50
2023-01-29T10:37:18.649Z,17.00
2023-01-29T10:39:47.306Z,18.10
2023-01-29T10:42:21.283Z,18.30
2023-01-29T10:45:04.674Z,17.13
2023-01-29T10:48:04.938Z,18.20
2023-01-29T10:50:44.150Z,16.45
2023-01-29T10:53:30.001Z,16.90
2023-01-29T10:56:21.824Z,16.77
2023-01-29T10:58:52.141Z,17.70
2023-01-29T11:01:19.279Z,16.92
2023-01-29T11:03:46.404Z,16.40
2023-01-29T11:06:20.110Z,16.83
2023-01-29T11:08:55.200Z,16.88
2023-01-29T11:11:31.968Z,16.15
2023-01-29T11:14:05.249Z,16.70
2023-01-29T11:16:33.532Z,15.52
2023-01-29T11:19:01.756Z,16.63
2023-01-29T11:21:29.863Z,16.23
2023-01-29T11:27:23.766Z,15.77
2023-01-29T11:29:51.361Z,16.63
2023-01-29T11:32:32.665Z,15.97
2023-01-29T11:35:01.828Z,16.13
2023-01-29T11:37:34.584Z,17.10
2023-01-29T11:40:01.868Z,17.13
2023-01-29T11:42:32.655Z,18.60
2023-01-29T11:44:59.758Z,17.05
2023-01-29T11:47:29.020Z,17.17
2023-01-29T11:49:58.268Z,17.17
2023-01-29T11:52:27.965Z,17.02
2023-01-29T11:54:59.389Z,17.80
2023-01-29T11:57:35.902Z,16.73
2023-01-29T12:00:07.445Z,20.03
2023-01-29T12:02:38.080Z,17.17
2023-01-29T12:05:14.439Z,17.40
2023-01-29T12:07:43.157Z,18.02
2023-01-29T12:10:31.256Z,17.00
2023-01-29T12:13:06.974Z,15.68
2023-01-29T12:15:34.081Z,16.38
2023-01-29T12:18:08.245Z,16.48
2023-01-29T12:20:39.608Z,16.35
2023-01-29T12:23:19.588Z,16.10
2023-01-29T12:25:56.693Z,16.48
2023-01-29T12:28:35.959Z,17.85
2023-01-29T12:31:16.224Z,14.65
2023-01-29T12:33:50.345Z,16.90
2023-01-29T12:36:24.525Z,16.25
2023-01-29T12:38:51.865Z,17.10
2023-01-29T12:41:36.978Z,16.85
2023-01-29T12:44:13.733Z,16.52
2023-01-29T12:46:44.512Z,15.90
2023-01-29T12:49:16.826Z,17.93
2023-01-29T12:51:51.747Z,16.25
2023-01-29T12:54:23.447Z,15.82
2023-01-29T12:56:56.191Z,16.35
2023-01-29T12:59:31.793Z,17.45
2023-01-29T13:02:05.241Z,16.90
2023-01-29T13:04:39.194Z,15.65
2023-01-29T13:07:13.141Z,16.38
2023-01-29T13:12:14.878Z,16.55
2023-01-29T13:14:48.858Z,15.95
2023-01-29T13:19:50.354Z,17.67
2023-01-29T13:22:23.387Z,16.63
2023-01-29T13:25:03.682Z,16.95
2023-01-29T13:27:35.228Z,15.80
2023-01-29T13:30:04.873Z,16.63
2023-01-29T13:32:35.078Z,17.02
2023-01-29T13:35:05.088Z,15.88
2023-01-29T13:37:34.605Z,17.80
2023-01-29T13:40:04.507Z,18.42
2023-01-29T13:42:40.664Z,17.15
2023-01-29T13:45:19.035Z,17.98
2023-01-29T13:47:46.539Z,16.80
2023-01-29T13:50:21.371Z,18.40
2023-01-29T13:52:54.279Z,17.65
2023-01-29T13:55:26.326Z,17.45
2023-01-29T13:57:56.274Z,17.83
2023-01-29T14:00:58.399Z,16.33
2023-01-29T14:04:04.837Z,18.00
2023-01-29T14:06:52.244Z,16.08
2023-01-29T14:09:50.133Z,15.95
2023-01-29T14:12:37.557Z,16.98
2023-01-29T14:15:19.012Z,17.03
2023-01-29T14:18:13.854Z,16.95
2023-01-29T14:20:56.411Z,17.30
2023-01-29T14:23:30.071Z,17.17
2023-01-29T14:25:59.363Z,19.38
2023-01-29T14:28:29.881Z,17.50
2023-01-29T14:30:57.176Z,18.92
2023-01-29T14:33:31.400Z,18.90
2023-01-29T14:35:59.107Z,18.43
2023-01-29T14:38:28.674Z,17.95
2023-01-29T14:41:16.515Z,17.25
2023-01-29T14:43:43.489Z,16.85
2023-01-29T14:46:43.542Z,18.23
2023-01-29T14:49:12.000Z,17.02
2023-01-29T14:51:44.180Z,18.05
2023-01-29T14:54:25.305Z,17.48
2023-01-29T14:56:59.448Z,17.73
2023-01-29T14:59:32.949Z,17.80
2023-01-29T15:02:05.673Z,17.88
2023-01-29T15:04:41.224Z,17.27
2023-01-29T15:07:20.098Z,17.58
2023-01-29T15:09:55.465Z,17.33
2023-01-29T15:12:30.071Z,18.42
2023-01-29T15:15:08.041Z,18.20
2023-01-29T15:17:41.846Z,17.50
2023-01-29T15:20:29.827Z,18.02
2023-01-29T15:22:56.968Z,17.50
2023-01-29T15:25:24.768Z,17.95
2023-01-29T15:27:52.330Z,18.20
2023-01-29T15:30:22.892Z,16.52
2023-01-29T15:32:50.200Z,18.67
2023-01-29T15:35:30.409Z,17.33
2023-01-29T15:38:03.787Z,19.13
2023-01-29T15:40:31.458Z,18.90
2023-01-29T15:42:58.785Z,19.33
2023-01-29T15:45:30.223Z,18.90
2023-01-29T15:48:03.887Z,18.80
2023-01-29T15:50:36.666Z,19.58
2023-01-29T15:53:12.456Z,19.27
2023-01-29T15:55:40.531Z,18.73
2023-01-29T15:58:12.822Z,18.83
2023-01-29T16:00:39.821Z,20.43
2023-01-29T16:03:15.393Z,18.75
2023-01-29T16:05:44.335Z,19.23
2023-01-29T16:08:14.175Z,18.48
2023-01-29T16:10:42.367Z,19.60
2023-01-29T16:13:17.043Z,18.05
2023-01-29T16:15:55.761Z,20.07
2023-01-29T16:18:25.202Z,19.80
2023-01-29T16:20:55.153Z,19.77
2023-01-29T16:23:25.536Z,20.37
2023-01-29T16:25:52.533Z,21.17
2023-01-29T16:28:19.912Z,17.90
2023-01-29T16:30:47.131Z,20.40
2023-01-29T16:33:17.449Z,19.27
2023-01-29T16:35:51.159Z,20.42
2023-01-29T16:38:27.394Z,19.00
2023-01-29T16:41:13.532Z,17.60
2023-01-29T16:43:52.284Z,20.43
2023-01-29T16:46:24.688Z,19.37
2023-01-29T16:48:53.048Z,19.70
2023-01-29T16:51:28.387Z,20.63
2023-01-29T16:53:59.299Z,20.55
2023-01-29T16:56:30.448Z,20.40
2023-01-29T16:58:58.393Z,20.58
2023-01-29T17:01:28.699Z,21.23
2023-01-29T17:04:03.266Z,21.40
2023-01-29T17:06:32.819Z,20.47
2023-01-29T17:09:01.370Z,21.17
2023-01-29T17:11:33.614Z,22.30
2023-01-29T17:14:01.342Z,21.73
2023-01-29T17:16:30.418Z,21.53
2023-01-29T17:18:58.377Z,21.23
2023-01-29T17:21:25.846Z,21.17
2023-01-29T17:23:53.234Z,21.53
2023-01-29T17:26:23.225Z,21.70
2023-01-29T17:28:51.691Z,22.83
2023-01-29T17:31:18.735Z,22.90
2023-01-29T17:33:46.084Z,25.73
2023-01-29T17:36:16.200Z,24.83
2023-01-29T17:38:43.246Z,21.50
2023-01-29T17:46:37.619Z,22.50
2023-01-29T17:49:10.041Z,25.60
2023-01-29T17:51:37.816Z,24.17
2023-01-29T17:54:05.026Z,23.13
2023-01-29T17:56:37.153Z,25.53
2023-01-29T17:59:13.310Z,28.17
2023-01-29T18:01:41.845Z,23.30
2023-01-29T18:04:09.594Z,24.07
2023-01-29T18:06:37.232Z,23.93
2023-01-29T18:09:04.833Z,22.90
2023-01-29T18:11:31.946Z,28.27
2023-01-29T18:13:58.965Z,23.43
2023-01-29T18:16:36.548Z,23.63
2023-01-29T18:19:13.862Z,24.65
2023-01-29T18:21:41.078Z,24.30
2023-01-29T18:24:08.926Z,25.90
2023-01-29T18:26:36.232Z,25.83
2023-01-29T18:29:03.901Z,25.77
2023-01-29T18:31:31.575Z,25.13
2023-01-29T18:33:58.972Z,25.92
2023-01-29T18:36:30.327Z,27.57
2023-01-29T18:38:57.636Z,25.77
2023-01-29T18:41:25.041Z,27.70
2023-01-29T18:43:52.974Z,28.70
2023-01-29T18:46:20.543Z,30.50
2023-01-29T18:48:48.046Z,29.90
2023-01-29T18:51:15.353Z,30.17
2023-01-29T18:53:45.969Z,29.20
2023-01-29T18:56:14.717Z,27.87
2023-01-29T18:58:42.300Z,28.33
2023-01-29T19:01:19.115Z,29.47
2023-01-29T19:03:46.270Z,26.90
2023-01-29T19:06:13.446Z,26.90
2023-01-29T19:08:43.018Z,25.23
2023-01-29T19:11:12.689Z,26.17
2023-01-29T19:13:40.990Z,27.90
2023-01-29T19:16:09.217Z,27.13
2023-01-29T19:18:36.758Z,25.53
2023-01-29T19:21:07.983Z,26.80
2023-01-29T19:23:35.056Z,28.40
2023-01-29T19:26:02.398Z,26.00
2023-01-29T19:28:31.396Z,26.27
2023-01-29T19:30:59.105Z,25.10
2023-01-29T19:33:27.990Z,24.43
2023-01-29T19:35:56.446Z,26.20
2023-01-29T19:38:23.703Z,25.03
2023-01-29T19:40:50.798Z,25.63
2023-01-29T19:43:18.276Z,27.33
2023-01-29T19:45:53.664Z,25.53
2023-01-29T19:48:21.886Z,25.15
2023-01-29T19:50:53.080Z,26.23
2023-01-29T19:53:20.279Z,25.87
2023-01-29T19:55:48.552Z,26.33
2023-01-29T19:58:15.560Z,26.73
2023-01-29T20:00:42.547Z,26.83
2023-01-29T20:03:11.067Z,26.73
2023-01-29T20:05:38.171Z,26.93
2023-01-29T20:08:05.663Z,27.80
2023-01-29T20:10:32.667Z,30.08
2023-01-29T20:12:59.738Z,26.40
2023-01-29T20:15:26.830Z,27.52
2023-01-29T20:17:53.758Z,29.10
2023-01-29T20:20:22.244Z,30.77
2023-01-29T20:22:51.385Z,28.57
2023-01-29T20:25:18.369Z,27.50
2023-01-29T20:27:45.524Z,29.15
2023-01-29T20:30:13.263Z,27.70
2023-01-29T20:32:40.394Z,26.33
2023-01-29T20:35:08.850Z,27.17
2023-01-29T20:37:37.337Z,26.65
2023-01-29T20:40:05.135Z,26.48
2023-01-29T20:42:32.107Z,26.67
2023-01-29T20:44:59.155Z,28.85
2023-01-29T20:47:26.035Z,25.02
2023-01-29T20:49:53.138Z,27.90
2023-01-29T20:52:20.256Z,27.10
2023-01-29T20:54:48.870Z,26.58
2023-01-29T20:57:16.023Z,24.30
2023-01-29T20:59:45.151Z,25.77
2023-01-29T21:02:12.385Z,26.67
2023-01-29T21:04:39.411Z,27.60
2023-01-29T21:07:06.359Z,26.60
2023-01-29T21:09:37.029Z,26.35
2023-01-29T21:12:07.205Z,26.83
2023-01-29T21:14:34.254Z,26.13
2023-01-29T21:17:01.918Z,25.80
2023-01-29T21:19:30.292Z,26.43
2023-01-29T21:22:00.657Z,25.05
2023-01-29T21:24:29.667Z,26.17
2023-01-29T21:26:56.724Z,23.70
2023-01-29T21:29:27.356Z,24.00
2023-01-29T21:31:54.770Z,24.70
2023-01-29T21:34:21.755Z,23.65
2023-01-29T21:36:48.805Z,23.70
2023-01-29T21:39:21.080Z,24.58
2023-01-29T21:42:08.463Z,24.57
2023-01-29T21:44:37.778Z,23.97
2023-01-29T21:47:12.326Z,23.57
2023-01-29T21:49:40.627Z,23.27
2023-01-29T21:52:08.759Z,21.40
2023-01-29T21:54:49.248Z,21.25
2023-01-29T21:57:16.935Z,21.58
2023-01-29T21:59:51.369Z,20.77
2023-01-29T22:02:21.911Z,19.80
2023-01-29T22:04:50.376Z,19.67
2023-01-29T22:07:17.367Z,18.83
2023-01-29T22:09:44.785Z,18.98
2023-01-29T22:12:12.146Z,17.70
2023-01-29T22:14:39.285Z,17.13
2023-01-29T22:17:08.506Z,17.10
2023-01-29T22:19:35.563Z,17.45
2023-01-29T22:22:02.749Z,16.73
2023-01-29T22:24:29.908Z,18.70
2023-01-29T22:26:56.952Z,18.37
2023-01-29T22:29:24.152Z,18.35
2023-01-29T22:31:51.899Z,18.37
2023-01-29T22:34:20.605Z,18.60
2023-01-29T22:36:47.952Z,19.77
2023-01-29T22:39:14.960Z,18.77
2023-01-29T22:41:41.962Z,18.42
2023-01-29T22:44:09.831Z,19.13
2023-01-29T22:46:36.901Z,19.38
2023-01-29T22:49:04.045Z,19.50
2023-01-29T22:51:33.131Z,18.73
2023-01-29T22:54:01.522Z,16.73
2023-01-29T22:56:30.700Z,19.13
2023-01-29T22:58:59.662Z,17.87
2023-01-29T23:01:28.917Z,18.33
2023-01-29T23:03:56.293Z,15.88
2023-01-29T23:06:24.061Z,19.10
2023-01-29T23:08:52.581Z,19.20
2023-01-29T23:11:23.551Z,20.03
2023-01-29T23:13:52.296Z,20.48
2023-01-29T23:16:21.615Z,20.20
2023-01-29T23:18:51.659Z,22.20
2023-01-29T23:21:19.404Z,21.53
2023-01-29T23:23:47.085Z,19.97
2023-01-29T23:26:34.706Z,20.88
2023-01-29T23:29:03.794Z,19.33
2023-01-29T23:31:31.858Z,18.95
2023-01-29T23:33:59.309Z,19.30
2023-01-29T23:36:26.819Z,18.20
2023-01-29T23:38:53.920Z,17.73
2023-01-29T23:41:22.959Z,18.35
2023-01-29T23:43:50.277Z,16.90
2023-01-29T23:46:17.579Z,17.30
2023-01-29T23:48:44.643Z,17.73
2023-01-29T23:51:11.799Z,15.87
2023-01-29T23:53:39.002Z,17.37
2023-01-29T23:56:06.777Z,19.13
2023-01-29T23:58:35.309Z,17.07
